createdAt,value
2018-07-17T00:00:33.332Z,98.40
2018-07-17T00:03:04.027Z,98.50
2018-07-17T00:05:34.782Z,98.50
2018-07-17T00:08:05.502Z,98.70
2018-07-17T00:10:36.047Z,98.90
2018-07-17T00:13:06.422Z,99.00
2018-07-17T00:15:36.973Z,99.30
2018-07-17T00:18:07.327Z,99.30
2018-07-17T00:20:38.689Z,99.30
2018-07-17T00:23:09.152Z,99.50
2018-07-17T00:25:39.658Z,99.60
2018-07-17T00:28:10.761Z,99.80
2018-07-17T00:30:41.374Z,99.90
2018-07-17T00:33:11.809Z,99.90
2018-07-17T00:35:42.229Z,99.90
2018-07-17T00:38:12.559Z,99.90
2018-07-17T00:40:42.965Z,99.90
2018-07-17T00:43:13.361Z,99.90
2018-07-17T00:50:44.080Z,99.90
2018-07-17T00:53:14.477Z,99.90
2018-07-17T00:55:44.870Z,99.90
2018-07-17T00:58:15.141Z,99.90
2018-07-17T01:00:46.043Z,99.90
2018-07-17T01:03:21.464Z,99.90
2018-07-17T01:05:57.068Z,99.90
2018-07-17T01:08:32.704Z,99.90
2018-07-17T01:11:08.509Z,99.90
2018-07-17T01:13:43.013Z,99.90
2018-07-17T01:16:13.460Z,99.90
2018-07-17T01:18:43.862Z,99.90
2018-07-17T01:21:14.185Z,99.90
2018-07-17T01:23:44.518Z,99.90
2018-07-17T01:26:14.842Z,99.90
2018-07-17T01:28:45.260Z,99.90
2018-07-17T01:31:15.580Z,99.90
2018-07-17T01:33:45.961Z,99.90
2018-07-17T01:36:16.288Z,99.90
2018-07-17T01:38:46.631Z,99.90
2018-07-17T01:41:16.999Z,99.90
2018-07-17T01:43:47.389Z,99.90
2018-07-17T01:46:17.699Z,99.90
2018-07-17T01:48:48.097Z,99.90
2018-07-17T01:51:18.497Z,99.90
2018-07-17T01:53:48.876Z,99.90
2018-07-17T01:56:19.257Z,99.90
2018-07-17T01:58:49.640Z,99.90
2018-07-17T02:01:21.777Z,99.90
2018-07-17T02:03:52.317Z,99.90
2018-07-17T02:06:22.648Z,99.90
2018-07-17T02:08:53.021Z,99.90
2018-07-17T02:11:23.403Z,99.90
2018-07-17T02:13:53.832Z,99.90
2018-07-17T02:16:24.183Z,99.90
2018-07-17T02:18:54.577Z,99.90
2018-07-17T02:21:24.889Z,99.90
2018-07-17T02:23:55.249Z,99.90
2018-07-17T02:26:25.657Z,99.90
2018-07-17T02:28:56.251Z,99.90
2018-07-17T02:31:32.686Z,99.90
2018-07-17T02:34:03.115Z,99.90
2018-07-17T02:36:33.622Z,99.90
2018-07-17T02:42:50.413Z,99.90
2018-07-17T02:45:58.440Z,99.90
2018-07-17T02:49:04.561Z,99.90
2018-07-17T02:54:47.075Z,99.90
2018-07-17T03:00:59.682Z,99.90
2018-07-17T03:07:30.892Z,99.90
2018-07-17T03:10:33.894Z,99.90
2018-07-17T03:17:01.198Z,99.90
2018-07-17T03:20:03.774Z,99.90
2018-07-17T03:59:08.762Z,99.90
2018-07-17T05:32:28.331Z,95.00
2018-07-17T05:35:01.822Z,94.50
2018-07-17T05:37:34.526Z,93.80
2018-07-17T05:40:10.269Z,93.80
2018-07-17T05:42:43.418Z,93.20
2018-07-17T05:45:13.873Z,93.30
2018-07-17T05:47:48.559Z,92.80
2018-07-17T05:50:20.480Z,92.00
2018-07-17T05:52:53.943Z,92.50
2018-07-17T05:55:28.991Z,91.90
2018-07-17T05:58:05.196Z,92.20
2018-07-17T06:00:41.521Z,91.70
2018-07-17T06:03:20.813Z,91.00
2018-07-17T06:09:17.960Z,90.80
2018-07-17T06:11:59.296Z,91.40
2018-07-17T06:14:35.300Z,90.90
2018-07-17T06:17:12.591Z,90.60
2018-07-17T06:20:01.101Z,90.30
2018-07-17T06:25:18.561Z,89.40
2018-07-17T06:27:57.887Z,89.70
2018-07-17T06:30:35.918Z,90.50
2018-07-17T06:35:54.239Z,88.20
2018-07-17T06:38:28.544Z,88.20
2018-07-17T06:41:00.629Z,89.50
2018-07-17T06:43:33.237Z,87.90
2018-07-17T06:46:07.719Z,87.50
2018-07-17T06:48:40.136Z,87.30
2018-07-17T06:51:11.756Z,87.00
2018-07-17T06:53:44.263Z,87.40
2018-07-17T06:56:15.755Z,87.20
2018-07-17T06:58:48.809Z,86.50
2018-07-17T07:01:23.045Z,85.20
2018-07-17T07:03:57.798Z,83.90
2018-07-17T07:09:11.269Z,83.60
2018-07-17T07:11:47.185Z,83.60
2018-07-17T07:14:22.446Z,83.40
2018-07-17T07:17:01.603Z,82.80
2018-07-17T07:19:38.328Z,82.00
2018-07-17T07:22:15.441Z,82.20
2018-07-17T07:24:57.433Z,81.60
2018-07-17T07:27:34.292Z,80.80
2018-07-17T07:30:09.532Z,79.50
2018-07-17T07:32:42.326Z,81.20
2018-07-17T07:35:24.341Z,81.80
2018-07-17T07:38:02.868Z,81.40
2018-07-17T07:40:34.992Z,80.90
2018-07-17T07:43:10.739Z,81.60
2018-07-17T07:45:46.988Z,80.20
2018-07-17T07:48:37.945Z,81.00
2018-07-17T07:51:11.463Z,80.80
2018-07-17T07:53:51.537Z,82.40
2018-07-17T07:59:05.740Z,80.00
2018-07-17T08:04:12.442Z,82.30
2018-07-17T08:06:46.209Z,80.50
2018-07-17T08:09:23.403Z,81.60
2018-07-17T08:12:03.965Z,81.50
2018-07-17T08:14:37.870Z,81.00
2018-07-17T08:17:10.660Z,80.40
2018-07-17T08:19:46.221Z,80.00
2018-07-17T08:22:19.955Z,79.50
2018-07-17T08:24:56.102Z,78.60
2018-07-17T08:27:37.752Z,77.90
2018-07-17T08:30:15.725Z,78.60
2018-07-17T08:32:55.778Z,78.70
2018-07-17T08:35:34.655Z,78.20
2018-07-17T08:38:09.247Z,78.20
2018-07-17T08:40:43.834Z,77.90
2018-07-17T08:43:29.808Z,77.30
2018-07-17T08:46:09.386Z,77.30
2018-07-17T08:48:45.867Z,75.10
2018-07-17T08:51:21.604Z,75.50
2018-07-17T08:53:53.863Z,76.10
2018-07-17T08:56:27.241Z,76.30
2018-07-17T08:59:06.039Z,74.70
2018-07-17T09:01:41.380Z,74.00
2018-07-17T09:04:27.554Z,74.40
2018-07-17T09:07:03.617Z,76.40
2018-07-17T09:09:38.097Z,73.60
2018-07-17T09:12:16.629Z,73.90
2018-07-17T09:14:53.206Z,73.30
2018-07-17T09:17:29.967Z,72.90
2018-07-17T09:20:09.971Z,72.30
2018-07-17T09:22:46.048Z,73.80
2018-07-17T09:25:19.947Z,74.30
2018-07-17T09:27:52.022Z,73.60
2018-07-17T09:30:24.201Z,73.40
2018-07-17T09:33:00.988Z,72.70
2018-07-17T09:35:36.435Z,72.20
2018-07-17T09:38:11.696Z,72.00
2018-07-17T09:40:46.580Z,68.80
2018-07-17T09:43:43.706Z,69.80
2018-07-17T09:46:30.561Z,69.30
2018-07-17T09:49:17.290Z,70.50
2018-07-17T09:51:53.763Z,69.20
2018-07-17T09:54:40.121Z,66.30
2018-07-17T09:57:24.134Z,68.10
2018-07-17T10:02:43.471Z,68.50
2018-07-17T10:07:54.343Z,66.60
2018-07-17T10:10:35.002Z,67.00
2018-07-17T10:16:03.193Z,66.50
2018-07-17T10:18:44.075Z,65.20
2018-07-17T10:21:18.461Z,63.20
2018-07-17T10:24:00.655Z,62.90
2018-07-17T10:26:40.997Z,63.00
2018-07-17T10:29:27.251Z,59.80
2018-07-17T10:32:05.634Z,59.50
2018-07-17T10:34:37.955Z,60.30
2018-07-17T10:37:10.592Z,60.70
2018-07-17T10:39:47.366Z,61.60
2018-07-17T10:49:06.786Z,59.90
2018-07-17T11:00:56.488Z,59.30
2018-07-17T11:03:49.463Z,57.90
2018-07-17T11:07:02.636Z,59.20
2018-07-17T11:09:51.540Z,59.40
2018-07-17T11:38:13.137Z,57.60
2018-07-17T12:29:32.674Z,53.30
2018-07-17T12:32:31.424Z,53.50
2018-07-17T12:35:16.103Z,52.30
2018-07-17T12:37:52.855Z,50.50
2018-07-17T12:40:30.463Z,50.90
2018-07-17T12:46:08.068Z,51.10
2018-07-17T12:48:49.253Z,52.30
2018-07-17T12:51:25.512Z,54.20
2018-07-17T12:53:56.157Z,52.90
2018-07-17T12:56:27.484Z,52.90
2018-07-17T12:58:59.967Z,52.70
2018-07-17T13:01:35.821Z,51.40
2018-07-17T13:04:09.155Z,52.10
2018-07-17T13:07:16.293Z,53.30
2018-07-17T13:20:58.351Z,51.30
2018-07-17T14:06:58.172Z,60.20
2018-07-17T14:14:17.802Z,60.70
2018-07-17T14:34:58.808Z,61.30
2018-07-17T14:53:36.501Z,62.00
2018-07-17T15:50:07.368Z,61.70
2018-07-17T15:52:37.753Z,60.10
2018-07-17T15:55:08.399Z,60.80
2018-07-17T15:57:38.812Z,61.60
2018-07-17T16:00:16.396Z,61.60
2018-07-17T16:02:52.033Z,60.70
2018-07-17T16:07:12.111Z,59.80
2018-07-17T16:09:42.532Z,60.10
2018-07-17T16:15:25.284Z,60.50
2018-07-17T16:17:55.666Z,59.90
2018-07-17T16:20:26.055Z,60.50
2018-07-17T16:22:56.480Z,60.00
2018-07-17T16:25:26.987Z,59.50
2018-07-17T16:31:17.603Z,59.10
2018-07-17T16:36:58.990Z,59.90
2018-07-17T16:39:30.288Z,58.90
2018-07-17T16:42:00.694Z,58.90
2018-07-17T16:44:31.164Z,58.50
2018-07-17T16:47:01.557Z,57.70
2018-07-17T16:49:32.717Z,59.20
2018-07-17T16:52:03.975Z,58.10
2018-07-17T16:54:34.463Z,58.20
2018-07-17T16:57:05.052Z,59.90
2018-07-17T16:59:35.377Z,58.60
2018-07-17T17:02:05.966Z,58.60
2018-07-17T17:04:36.612Z,58.40
2018-07-17T17:07:06.940Z,57.80
2018-07-17T17:09:37.356Z,57.70
2018-07-17T17:12:07.961Z,58.50
2018-07-17T17:14:38.348Z,58.50
2018-07-17T17:17:08.773Z,58.00
2018-07-17T17:19:39.171Z,58.70
2018-07-17T17:22:09.612Z,58.10
2018-07-17T17:24:40.018Z,58.30
2018-07-17T17:27:10.496Z,58.30
2018-07-17T17:29:40.809Z,58.30
2018-07-17T17:32:12.804Z,58.10
2018-07-17T17:34:43.569Z,58.30
2018-07-17T17:37:13.988Z,58.30
2018-07-17T17:39:44.449Z,58.20
2018-07-17T17:42:14.796Z,58.10
2018-07-17T17:44:45.179Z,57.90
2018-07-17T17:47:16.757Z,58.80
2018-07-17T17:49:47.717Z,58.40
2018-07-17T17:52:18.227Z,58.70
2018-07-17T17:54:48.662Z,58.30
2018-07-17T17:57:19.186Z,58.90
2018-07-17T17:59:49.685Z,58.80
2018-07-17T18:02:20.026Z,59.10
2018-07-17T18:04:50.413Z,61.70
2018-07-17T18:07:20.878Z,62.90
2018-07-17T18:09:54.613Z,63.60
2018-07-17T18:12:27.508Z,63.90
2018-07-17T18:15:01.212Z,64.60
2018-07-17T18:17:31.596Z,64.80
2018-07-17T18:20:02.073Z,65.10
2018-07-17T18:22:32.588Z,65.40
2018-07-17T18:25:03.050Z,65.40
2018-07-17T18:27:33.501Z,66.00
2018-07-17T18:30:03.972Z,66.10
2018-07-17T18:32:34.332Z,66.50
2018-07-17T18:35:05.250Z,66.80
2018-07-17T18:37:35.852Z,66.30
2018-07-17T18:40:06.429Z,66.30
2018-07-17T18:42:36.815Z,66.60
2018-07-17T18:45:08.512Z,66.80
2018-07-17T18:47:38.885Z,67.80
2018-07-17T18:50:13.332Z,68.00
2018-07-17T18:52:43.642Z,68.80
2018-07-17T18:55:14.104Z,69.30
2018-07-17T18:57:44.501Z,69.90
2018-07-17T19:00:14.961Z,70.40
2018-07-17T19:02:45.602Z,70.90
2018-07-17T19:05:15.954Z,71.40
2018-07-17T19:07:46.376Z,72.20
2018-07-17T19:10:17.139Z,72.70
2018-07-17T19:12:47.623Z,72.90
2018-07-17T19:15:18.729Z,72.80
2018-07-17T19:17:49.191Z,73.30
2018-07-17T19:20:19.538Z,73.70
2018-07-17T19:22:50.024Z,73.10
2018-07-17T19:25:20.427Z,73.70
2018-07-17T19:27:50.995Z,73.40
2018-07-17T19:30:21.630Z,73.60
2018-07-17T19:32:52.379Z,73.90
2018-07-17T19:35:22.723Z,73.70
2018-07-17T19:37:53.144Z,73.90
2018-07-17T19:40:24.004Z,73.80
2018-07-17T19:42:54.808Z,73.70
2018-07-17T19:45:25.223Z,73.60
2018-07-17T19:47:55.847Z,73.90
2018-07-17T19:50:26.312Z,73.90
2018-07-17T19:52:56.730Z,74.30
2018-07-17T19:55:27.371Z,74.20
2018-07-17T19:57:57.903Z,74.50
2018-07-17T20:00:28.587Z,74.60
2018-07-17T20:02:59.172Z,74.70
2018-07-17T20:05:29.672Z,74.60
2018-07-17T20:08:00.081Z,74.70
2018-07-17T20:10:30.792Z,74.60
2018-07-17T20:13:04.289Z,74.80
2018-07-17T20:15:34.898Z,74.90
2018-07-17T20:18:05.350Z,75.00
2018-07-17T20:20:35.912Z,75.00
2018-07-17T20:23:06.576Z,74.70
2018-07-17T20:25:37.045Z,74.80
2018-07-17T20:28:12.273Z,76.20
2018-07-17T20:30:44.644Z,76.40
2018-07-17T20:33:15.033Z,77.00
2018-07-17T20:35:45.579Z,77.30
2018-07-17T20:38:15.975Z,77.70
2018-07-17T20:40:46.558Z,78.50
2018-07-17T20:43:16.906Z,79.20
2018-07-17T20:45:47.487Z,79.30
2018-07-17T20:48:18.015Z,79.60
2018-07-17T20:50:48.345Z,79.80
2018-07-17T20:53:18.974Z,80.70
2018-07-17T20:55:51.361Z,80.10
2018-07-17T20:58:21.843Z,79.20
2018-07-17T21:00:52.319Z,79.00
2018-07-17T21:03:22.968Z,79.30
2018-07-17T21:05:53.653Z,78.80
2018-07-17T21:08:24.292Z,79.40
2018-07-17T21:11:04.913Z,79.40
2018-07-17T21:13:40.918Z,80.00
2018-07-17T21:16:14.969Z,80.60
2018-07-17T21:18:52.403Z,80.20
2018-07-17T21:21:31.991Z,80.20
2018-07-17T21:24:02.562Z,80.30
2018-07-17T21:26:33.016Z,79.60
2018-07-17T21:29:14.624Z,79.90
2018-07-17T21:31:49.974Z,79.70
2018-07-17T21:34:21.466Z,79.70
2018-07-17T21:36:51.924Z,79.90
2018-07-17T21:39:25.313Z,80.00
2018-07-17T21:41:57.046Z,80.10
2018-07-17T21:44:40.671Z,80.10
2018-07-17T21:47:11.142Z,80.30
2018-07-17T21:49:46.033Z,80.30
2018-07-17T21:52:18.475Z,80.40
2018-07-17T21:54:48.997Z,80.50
2018-07-17T21:57:23.387Z,80.40
2018-07-17T21:59:57.699Z,80.40
2018-07-17T22:02:33.538Z,80.30
2018-07-17T22:05:05.214Z,80.50
2018-07-17T22:07:35.874Z,80.60
2018-07-17T22:10:06.649Z,80.70
2018-07-17T22:12:37.123Z,81.00
2018-07-17T22:15:07.667Z,80.90
2018-07-17T22:17:38.220Z,81.10
2018-07-17T22:20:08.865Z,81.40
2018-07-17T22:22:39.427Z,81.00
2018-07-17T22:25:09.871Z,81.20
2018-07-17T22:27:40.337Z,81.00
2018-07-17T22:30:10.851Z,81.00
2018-07-17T22:32:41.585Z,81.20
2018-07-17T22:35:12.190Z,81.10
2018-07-17T22:37:42.710Z,81.30
2018-07-17T22:40:13.187Z,81.90
2018-07-17T22:42:43.746Z,82.00
2018-07-17T22:45:14.079Z,82.50
2018-07-17T22:47:44.632Z,82.40
2018-07-17T22:50:17.309Z,82.60
2018-07-17T22:52:52.050Z,83.20
2018-07-17T22:55:22.510Z,83.30
2018-07-17T22:57:52.868Z,83.30
2018-07-17T23:00:25.206Z,84.00
2018-07-17T23:02:55.633Z,84.20
2018-07-17T23:05:26.082Z,83.90
2018-07-17T23:08:00.150Z,83.90
2018-07-17T23:10:31.644Z,83.90
2018-07-17T23:13:02.272Z,84.40
2018-07-17T23:15:32.847Z,84.40
2018-07-17T23:18:10.194Z,84.40
2018-07-17T23:20:48.432Z,84.80
2018-07-17T23:23:24.743Z,84.70
2018-07-17T23:25:56.968Z,85.10
2018-07-17T23:28:29.654Z,86.10
2018-07-17T23:31:00.292Z,86.30
2018-07-17T23:33:30.771Z,87.00
2018-07-17T23:36:01.186Z,88.00
2018-07-17T23:38:32.521Z,87.70
2018-07-17T23:41:03.199Z,88.50
2018-07-17T23:43:33.536Z,89.00
2018-07-17T23:46:03.989Z,90.10
2018-07-17T23:48:34.422Z,89.60
2018-07-17T23:51:04.789Z,89.60
2018-07-17T23:53:35.203Z,90.00
2018-07-17T23:56:06.054Z,90.20
2018-07-17T23:58:36.484Z,90.50
